createdAt,value
2023-10-20T00:00:23.065Z,7.22
2023-10-20T00:02:51.541Z,7.15
2023-10-20T00:05:21.392Z,7.20
2023-10-20T00:07:49.786Z,7.16
2023-10-20T00:10:19.059Z,7.26
2023-10-20T00:12:47.510Z,7.25
2023-10-20T00:15:17.569Z,7.27
2023-10-20T00:17:47.287Z,7.26
2023-10-20T00:20:15.700Z,7.12
2023-10-20T00:22:45.577Z,7.25
2023-10-20T00:25:13.883Z,7.27
2023-10-20T00:27:43.352Z,7.18
2023-10-20T00:30:13.031Z,7.25
2023-10-20T00:32:42.633Z,7.20
2023-10-20T00:35:14.658Z,7.25
2023-10-20T00:37:45.203Z,7.16
2023-10-20T00:40:14.443Z,7.21
2023-10-20T00:42:42.845Z,7.19
2023-10-20T00:45:12.239Z,7.24
2023-10-20T00:47:42.272Z,7.23
2023-10-20T00:50:13.343Z,7.19
2023-10-20T00:52:46.435Z,7.20
2023-10-20T00:55:16.109Z,7.23
2023-10-20T00:57:46.436Z,7.22
2023-10-20T01:00:16.595Z,7.20
2023-10-20T01:02:45.065Z,7.26
2023-10-20T01:05:16.316Z,7.17
2023-10-20T01:07:46.301Z,7.20
2023-10-20T01:10:15.375Z,7.19
2023-10-20T01:12:44.286Z,7.21
2023-10-20T01:15:16.378Z,7.13
2023-10-20T01:17:45.335Z,7.19
2023-10-20T01:20:14.199Z,7.24
2023-10-20T01:22:43.188Z,7.24
2023-10-20T01:25:13.363Z,7.26
2023-10-20T01:27:41.845Z,7.19
2023-10-20T01:30:12.358Z,7.13
2023-10-20T01:32:42.202Z,7.18
2023-10-20T01:35:11.547Z,7.24
2023-10-20T01:37:39.954Z,7.19
2023-10-20T01:40:10.908Z,7.21
2023-10-20T01:42:40.820Z,7.18
2023-10-20T01:45:11.105Z,7.14
2023-10-20T01:47:39.942Z,7.17
2023-10-20T01:50:09.158Z,7.16
2023-10-20T01:52:38.514Z,7.12
2023-10-20T01:55:07.341Z,7.19
2023-10-20T01:57:35.771Z,7.11
2023-10-20T02:00:09.617Z,7.13
2023-10-20T02:02:41.133Z,7.18
2023-10-20T02:05:10.686Z,7.10
2023-10-20T02:07:39.994Z,7.12
2023-10-20T02:10:09.595Z,7.12
2023-10-20T02:12:38.111Z,7.10
2023-10-20T02:15:09.944Z,7.11
2023-10-20T02:17:38.455Z,7.07
2023-10-20T02:20:08.558Z,7.13
2023-10-20T02:22:37.013Z,7.05
2023-10-20T02:25:06.612Z,7.08
2023-10-20T02:27:35.088Z,6.96
2023-10-20T02:30:04.337Z,7.08
2023-10-20T02:32:34.294Z,7.02
2023-10-20T02:35:03.328Z,7.09
2023-10-20T02:37:31.701Z,7.10
2023-10-20T02:40:01.050Z,7.04
2023-10-20T02:42:32.243Z,7.11
2023-10-20T02:45:00.652Z,7.01
2023-10-20T02:47:31.056Z,6.93
2023-10-20T02:50:00.953Z,7.06
2023-10-20T02:52:29.350Z,7.01
2023-10-20T02:54:57.665Z,7.05
2023-10-20T02:57:26.153Z,6.96
2023-10-20T02:59:54.520Z,6.95
2023-10-20T03:02:23.782Z,6.91
2023-10-20T03:04:55.001Z,6.90
2023-10-20T03:07:28.600Z,6.96
2023-10-20T03:09:58.132Z,6.96
2023-10-20T03:12:26.616Z,6.88
2023-10-20T03:14:55.139Z,6.84
2023-10-20T03:17:23.496Z,6.94
2023-10-20T03:19:54.887Z,6.86
2023-10-20T03:22:24.809Z,6.88
2023-10-20T03:24:53.076Z,6.82
2023-10-20T03:27:21.662Z,6.83
2023-10-20T03:29:52.706Z,6.91
2023-10-20T03:32:21.513Z,6.87
2023-10-20T03:34:49.767Z,6.89
2023-10-20T03:37:18.153Z,6.88
2023-10-20T03:39:52.330Z,6.89
2023-10-20T03:42:20.720Z,6.90
2023-10-20T03:44:49.291Z,6.91
2023-10-20T03:47:18.724Z,6.90
2023-10-20T03:49:47.897Z,6.95
2023-10-20T03:52:16.239Z,6.87
2023-10-20T03:54:45.871Z,6.86
2023-10-20T03:57:17.217Z,6.87
2023-10-20T03:59:48.205Z,6.90
2023-10-20T04:02:16.740Z,6.92
2023-10-20T04:04:45.349Z,6.90
2023-10-20T04:07:13.581Z,6.93
2023-10-20T04:09:42.209Z,6.91
2023-10-20T04:12:10.710Z,6.94
2023-10-20T04:14:40.690Z,6.85
2023-10-20T04:17:09.104Z,6.90
2023-10-20T04:19:37.392Z,6.87
2023-10-20T04:22:13.848Z,6.89
2023-10-20T04:24:43.067Z,6.88
2023-10-20T04:27:22.620Z,6.90
2023-10-20T04:30:06.044Z,6.96
2023-10-20T04:32:51.648Z,6.85
2023-10-20T04:35:36.777Z,6.90
2023-10-20T04:38:22.909Z,6.90
2023-10-20T04:41:08.618Z,6.85
2023-10-20T04:43:41.185Z,6.79
2023-10-20T04:46:30.787Z,6.83
2023-10-20T04:49:17.971Z,6.76
2023-10-20T04:52:03.679Z,6.79
2023-10-20T04:54:45.953Z,6.80
2023-10-20T04:57:32.672Z,6.77
2023-10-20T05:00:22.570Z,6.76
2023-10-20T05:03:13.705Z,6.74
2023-10-20T05:05:45.686Z,6.73
2023-10-20T05:08:19.377Z,6.66
2023-10-20T05:10:50.547Z,6.70
2023-10-20T05:13:20.342Z,6.70
2023-10-20T05:15:49.384Z,6.75
2023-10-20T05:18:19.490Z,6.79
2023-10-20T05:20:47.895Z,6.74
2023-10-20T05:23:17.179Z,6.73
2023-10-20T05:25:50.448Z,6.69
2023-10-20T05:28:19.114Z,6.70
2023-10-20T05:30:48.169Z,6.70
2023-10-20T05:33:17.455Z,6.68
2023-10-20T05:35:47.396Z,6.63
2023-10-20T05:38:16.222Z,6.61
2023-10-20T05:40:44.983Z,6.62
2023-10-20T05:43:14.377Z,6.61
2023-10-20T05:45:43.237Z,6.66
2023-10-20T05:48:14.153Z,6.63
2023-10-20T05:50:42.957Z,6.62
2023-10-20T05:53:15.828Z,6.65
2023-10-20T06:33:35.716Z,6.52
2023-10-20T06:36:11.750Z,6.63
2023-10-20T06:38:59.732Z,6.63
2023-10-20T06:41:28.661Z,6.59
2023-10-20T06:43:59.040Z,6.61
2023-10-20T06:46:28.814Z,6.62
2023-10-20T06:48:57.506Z,6.62
2023-10-20T06:51:26.781Z,6.65
2023-10-20T06:53:55.284Z,6.62
2023-10-20T06:56:28.556Z,6.66
2023-10-20T06:58:57.261Z,6.68
2023-10-20T07:01:28.109Z,6.69
2023-10-20T07:03:56.954Z,6.67
2023-10-20T07:06:25.419Z,6.64
2023-10-20T07:08:53.808Z,6.63
2023-10-20T07:11:25.606Z,6.65
2023-10-20T07:13:55.329Z,6.62
2023-10-20T07:16:23.696Z,6.62
2023-10-20T07:18:52.068Z,6.66
2023-10-20T07:21:20.467Z,6.64
2023-10-20T07:23:48.787Z,6.70
2023-10-20T07:26:19.402Z,7.47
2023-10-20T07:28:48.360Z,7.41
2023-10-20T07:31:22.929Z,7.31
2023-10-20T07:33:51.582Z,7.32
2023-10-20T07:36:20.790Z,7.29
2023-10-20T07:38:52.125Z,7.29
2023-10-20T07:41:20.540Z,7.29
2023-10-20T07:43:50.912Z,7.32
2023-10-20T07:46:22.682Z,7.29
2023-10-20T07:48:51.493Z,7.30
2023-10-20T07:51:20.474Z,7.26
2023-10-20T07:53:54.295Z,7.22
2023-10-20T07:56:26.344Z,7.16
2023-10-20T07:58:54.946Z,7.21
2023-10-20T08:01:24.901Z,7.26
2023-10-20T08:03:53.971Z,7.25
2023-10-20T08:06:24.809Z,7.18
2023-10-20T08:08:55.637Z,7.18
2023-10-20T08:11:24.078Z,7.20
2023-10-20T08:13:52.930Z,7.06
2023-10-20T08:16:22.916Z,7.04
2023-10-20T08:18:53.260Z,7.09
2023-10-20T08:21:21.643Z,7.04
2023-10-20T08:23:50.037Z,7.00
2023-10-20T08:26:23.046Z,7.01
2023-10-20T08:28:51.810Z,6.95
2023-10-20T08:31:23.116Z,6.97
2023-10-20T08:33:53.832Z,7.18
2023-10-20T08:36:25.031Z,7.11
2023-10-20T08:38:54.568Z,7.07
2023-10-20T08:41:24.878Z,7.09
2023-10-20T08:43:53.635Z,7.04
2023-10-20T08:46:25.017Z,7.03
2023-10-20T08:48:58.995Z,7.04
2023-10-20T08:51:27.627Z,6.95
2023-10-20T08:53:55.984Z,7.00
2023-10-20T08:56:24.769Z,7.03
2023-10-20T08:58:55.654Z,6.94
2023-10-20T09:01:24.257Z,7.01
2023-10-20T09:03:53.678Z,6.96
2023-10-20T09:06:27.553Z,6.87
2023-10-20T09:08:56.260Z,6.80
2023-10-20T09:11:31.086Z,6.78
2023-10-20T09:14:02.237Z,6.91
2023-10-20T09:16:30.677Z,6.89
2023-10-20T09:18:59.069Z,6.89
2023-10-20T09:21:30.155Z,6.86
2023-10-20T09:24:02.974Z,6.91
2023-10-20T09:26:34.081Z,6.86
2023-10-20T09:29:02.906Z,6.82
2023-10-20T09:31:31.526Z,6.74
2023-10-20T09:34:00.994Z,6.75
2023-10-20T09:36:33.055Z,6.75
2023-10-20T09:39:06.380Z,6.72
2023-10-20T09:41:38.002Z,6.74
2023-10-20T09:44:08.393Z,6.75
2023-10-20T09:46:54.528Z,7.22
2023-10-20T09:49:25.983Z,7.13
2023-10-20T09:51:58.217Z,7.05
2023-10-20T09:54:31.363Z,6.91
2023-10-20T09:57:01.217Z,6.99
2023-10-20T09:59:32.710Z,7.06
2023-10-20T10:02:01.885Z,6.92
2023-10-20T10:04:34.593Z,6.99
2023-10-20T10:07:06.369Z,6.95
2023-10-20T10:09:38.897Z,6.91
2023-10-20T10:12:11.898Z,6.92
2023-10-20T10:14:40.774Z,6.99
2023-10-20T10:17:11.862Z,8.28
2023-10-20T10:19:51.721Z,7.94
2023-10-20T10:22:28.952Z,7.75
2023-10-20T10:24:58.781Z,7.64
2023-10-20T10:27:30.033Z,7.68
2023-10-20T10:30:02.981Z,7.66
2023-10-20T10:32:35.439Z,7.65
2023-10-20T10:35:05.697Z,7.57
2023-10-20T10:37:38.349Z,7.51
2023-10-20T10:40:10.263Z,7.38
2023-10-20T10:42:40.940Z,7.39
2023-10-20T10:45:17.081Z,7.60
2023-10-20T10:47:45.576Z,7.58
2023-10-20T10:50:16.521Z,7.93
2023-10-20T10:52:46.518Z,7.87
2023-10-20T10:55:15.118Z,7.80
2023-10-20T10:57:43.916Z,7.84
2023-10-20T11:00:19.891Z,7.60
2023-10-20T11:02:49.407Z,7.75
2023-10-20T11:05:18.776Z,7.68
2023-10-20T11:08:03.858Z,7.36
2023-10-20T11:10:35.500Z,7.57
2023-10-20T11:13:08.154Z,7.55
2023-10-20T11:15:37.745Z,7.49
2023-10-20T11:18:08.957Z,7.23
2023-10-20T11:20:39.611Z,7.28
2023-10-20T11:23:10.409Z,7.38
2023-10-20T11:25:41.972Z,7.48
2023-10-20T11:28:10.714Z,7.39
2023-10-20T11:30:46.210Z,7.43
2023-10-20T11:33:16.726Z,7.24
2023-10-20T11:35:46.619Z,7.35
2023-10-20T11:38:17.626Z,7.29
2023-10-20T11:40:50.968Z,7.44
2023-10-20T11:43:19.468Z,7.31
2023-10-20T11:45:47.938Z,7.36
2023-10-20T11:48:17.100Z,7.49
2023-10-20T11:50:45.879Z,7.52
2023-10-20T11:53:17.945Z,7.43
2023-10-20T11:55:46.482Z,7.27
2023-10-20T11:58:14.841Z,7.24
2023-10-20T12:00:43.679Z,7.23
2023-10-20T12:03:12.332Z,7.31
2023-10-20T12:05:41.500Z,7.28
2023-10-20T12:08:10.224Z,7.39
2023-10-20T12:10:40.872Z,7.27
2023-10-20T12:13:10.055Z,7.28
2023-10-20T12:15:38.891Z,7.23
2023-10-20T12:18:08.704Z,7.33
2023-10-20T12:20:37.423Z,7.22
2023-10-20T12:23:08.370Z,7.10
2023-10-20T12:25:37.270Z,7.14
2023-10-20T12:28:08.041Z,7.11
2023-10-20T12:30:37.084Z,7.10
2023-10-20T12:33:06.799Z,7.05
2023-10-20T12:35:35.302Z,6.94
2023-10-20T12:38:07.311Z,6.99
2023-10-20T12:40:36.915Z,7.04
2023-10-20T12:43:13.044Z,7.06
2023-10-20T12:45:43.599Z,7.13
2023-10-20T12:48:12.091Z,7.03
2023-10-20T12:50:40.584Z,6.96
2023-10-20T12:53:09.626Z,6.93
2023-10-20T12:55:37.944Z,6.95
2023-10-20T12:58:07.829Z,7.02
2023-10-20T13:00:36.271Z,6.87
2023-10-20T13:03:05.040Z,6.86
2023-10-20T13:05:35.980Z,6.86
2023-10-20T13:08:05.078Z,6.78
2023-10-20T13:10:37.341Z,6.72
2023-10-20T13:13:10.006Z,6.80
2023-10-20T13:15:40.356Z,6.81
2023-10-20T13:18:10.230Z,6.76
2023-10-20T13:20:39.045Z,6.87
2023-10-20T13:23:07.426Z,6.62
2023-10-20T13:25:36.159Z,6.73
2023-10-20T13:28:07.069Z,6.71
2023-10-20T13:30:37.250Z,6.70
2023-10-20T13:33:06.316Z,6.76
2023-10-20T13:35:37.912Z,6.82
2023-10-20T13:38:18.057Z,6.83
2023-10-20T13:40:47.873Z,6.83
2023-10-20T13:43:16.277Z,6.83
2023-10-20T13:45:46.072Z,6.88
2023-10-20T13:48:14.910Z,6.71
2023-10-20T13:50:43.328Z,6.81
2023-10-20T13:53:15.538Z,6.94
2023-10-20T13:55:50.356Z,6.75
2023-10-20T13:58:19.444Z,6.89
2023-10-20T14:00:56.844Z,7.01
2023-10-20T14:03:26.925Z,7.00
2023-10-20T14:05:56.502Z,6.86
2023-10-20T14:08:25.797Z,6.87
2023-10-20T14:10:55.612Z,6.74
2023-10-20T14:13:24.000Z,6.88
2023-10-20T14:15:53.881Z,6.90
2023-10-20T14:18:23.132Z,6.76
2023-10-20T14:21:31.971Z,6.88
2023-10-20T14:24:01.218Z,6.85
2023-10-20T14:26:29.751Z,6.96
2023-10-20T14:28:58.136Z,6.92
2023-10-20T14:31:33.615Z,6.87
2023-10-20T14:34:02.091Z,6.85
2023-10-20T14:36:32.562Z,6.87
2023-10-20T14:39:00.896Z,6.83
2023-10-20T14:41:29.290Z,6.76
2023-10-20T14:44:00.418Z,6.78
2023-10-20T14:46:28.837Z,6.80
2023-10-20T14:48:57.675Z,6.76
2023-10-20T14:51:26.307Z,6.80
2023-10-20T14:55:54.744Z,6.85
2023-10-20T14:58:23.320Z,6.72
2023-10-20T15:00:52.607Z,6.90
2023-10-20T15:03:22.216Z,6.82
2023-10-20T15:05:52.033Z,6.83
2023-10-20T15:08:21.049Z,6.81
2023-10-20T15:10:49.661Z,6.87
2023-10-20T15:13:20.321Z,6.89
2023-10-20T15:15:48.696Z,6.86
2023-10-20T15:18:19.746Z,6.80
2023-10-20T15:20:48.252Z,6.83
2023-10-20T15:23:18.368Z,6.74
2023-10-20T15:25:48.395Z,6.71
2023-10-20T15:28:16.867Z,6.82
2023-10-20T15:30:47.062Z,6.85
2023-10-20T15:33:18.223Z,6.76
2023-10-20T15:35:48.688Z,6.83
2023-10-20T15:38:17.444Z,6.79
2023-10-20T15:40:52.494Z,6.76
2023-10-20T15:43:21.244Z,6.83
2023-10-20T15:45:51.132Z,6.95
2023-10-20T15:48:19.796Z,6.88
2023-10-20T15:50:48.490Z,6.96
2023-10-20T15:53:16.973Z,6.90
2023-10-20T15:55:47.541Z,7.01
2023-10-20T15:58:16.789Z,6.95
2023-10-20T16:00:48.662Z,6.91
2023-10-20T16:03:20.813Z,6.87
2023-10-20T16:05:49.425Z,6.96
2023-10-20T16:08:17.686Z,6.94
2023-10-20T16:10:47.300Z,6.97
2023-10-20T16:13:15.764Z,7.09
2023-10-20T16:15:44.205Z,7.01
2023-10-20T16:18:13.012Z,6.90
2023-10-20T16:20:43.023Z,6.91
2023-10-20T16:23:11.308Z,6.90
2023-10-20T16:25:39.576Z,6.80
2023-10-20T16:28:09.093Z,6.85
2023-10-20T16:30:37.469Z,6.94
2023-10-20T16:33:06.470Z,6.85
2023-10-20T16:35:34.990Z,6.94
2023-10-20T16:38:04.803Z,6.91
2023-10-20T16:40:33.122Z,6.96
2023-10-20T16:43:02.209Z,6.90
2023-10-20T16:45:30.700Z,6.97
2023-10-20T16:47:59.098Z,6.88
2023-10-20T16:50:28.300Z,6.88
2023-10-20T16:52:58.733Z,6.93
2023-10-20T16:55:28.937Z,6.78
2023-10-20T16:57:57.448Z,6.94
2023-10-20T17:00:25.901Z,6.97
2023-10-20T17:02:54.376Z,6.95
2023-10-20T17:05:22.924Z,7.13
2023-10-20T17:07:51.542Z,7.02
2023-10-20T17:10:20.568Z,7.15
2023-10-20T17:12:51.406Z,7.12
2023-10-20T17:15:20.176Z,7.10
2023-10-20T17:17:48.561Z,7.26
2023-10-20T17:20:17.250Z,7.22
2023-10-20T17:22:45.807Z,7.13
2023-10-20T17:25:14.083Z,7.16
2023-10-20T17:27:42.402Z,7.08
2023-10-20T17:30:13.293Z,7.13
2023-10-20T17:32:41.640Z,7.01
2023-10-20T17:35:10.955Z,6.98
2023-10-20T17:37:41.527Z,7.06
2023-10-20T17:40:13.325Z,7.14
2023-10-20T17:42:41.701Z,7.21
2023-10-20T17:45:10.750Z,7.18
2023-10-20T17:47:40.812Z,7.23
2023-10-20T17:50:10.018Z,7.38
2023-10-20T17:52:38.264Z,7.34
2023-10-20T17:55:07.491Z,7.32
2023-10-20T17:57:36.396Z,7.43
2023-10-20T18:00:06.338Z,7.33
2023-10-20T18:02:44.720Z,7.41
2023-10-20T18:06:30.980Z,7.39
2023-10-20T18:08:59.351Z,7.47
2023-10-20T18:11:28.039Z,7.48
2023-10-20T18:13:57.265Z,7.52
2023-10-20T18:16:26.504Z,7.51
2023-10-20T18:18:55.003Z,7.43
2023-10-20T18:21:23.465Z,7.64
2023-10-20T18:23:58.759Z,7.64
2023-10-20T18:26:27.237Z,7.58
2023-10-20T18:28:55.658Z,7.55
2023-10-20T18:31:24.045Z,7.57
2023-10-20T18:33:58.388Z,7.55
2023-10-20T18:36:27.854Z,7.59
2023-10-20T18:38:57.908Z,7.60
2023-10-20T18:41:26.276Z,7.66
2023-10-20T18:43:54.838Z,7.69
2023-10-20T18:46:24.983Z,7.65
2023-10-20T18:48:53.954Z,7.57
2023-10-20T18:51:23.881Z,7.69
2023-10-20T18:53:53.401Z,7.78
2023-10-20T18:56:23.589Z,7.70
2023-10-20T18:58:51.901Z,7.74
2023-10-20T19:01:20.544Z,7.81
2023-10-20T19:03:49.216Z,7.71
2023-10-20T19:06:17.828Z,7.71
2023-10-20T19:08:46.221Z,7.91
2023-10-20T19:11:14.688Z,7.92
2023-10-20T19:13:45.189Z,7.87
2023-10-20T19:16:13.576Z,7.88
2023-10-20T19:18:42.029Z,7.83
2023-10-20T19:21:12.320Z,7.87
2023-10-20T19:23:41.972Z,7.87
2023-10-20T19:26:12.592Z,7.98
2023-10-20T19:28:41.022Z,7.96
2023-10-20T19:31:11.045Z,7.93
2023-10-20T19:33:40.368Z,7.78
2023-10-20T19:36:11.008Z,8.10
2023-10-20T19:38:40.138Z,7.92
2023-10-20T19:41:09.387Z,7.97
2023-10-20T19:43:37.946Z,8.01
2023-10-20T19:46:06.494Z,7.94
2023-10-20T19:48:36.556Z,8.04
2023-10-20T19:51:05.039Z,7.99
2023-10-20T19:53:33.408Z,8.10
2023-10-20T19:56:01.848Z,8.02
2023-10-20T19:58:30.269Z,8.00
2023-10-20T20:00:59.311Z,8.14
2023-10-20T20:03:28.444Z,8.30
2023-10-20T20:05:59.497Z,8.30
2023-10-20T20:08:27.774Z,8.25
2023-10-20T20:10:57.298Z,8.38
2023-10-20T20:13:26.528Z,8.38
2023-10-20T20:15:54.756Z,8.37
2023-10-20T20:18:23.184Z,8.38
2023-10-20T20:20:51.543Z,8.40
2023-10-20T20:23:21.380Z,8.46
2023-10-20T20:25:50.023Z,8.35
2023-10-20T20:28:18.281Z,8.33
2023-10-20T20:30:46.627Z,8.40
2023-10-20T20:33:15.067Z,8.37
2023-10-20T20:35:44.055Z,8.28
2023-10-20T20:38:12.509Z,8.28
2023-10-20T20:40:42.287Z,8.28
2023-10-20T20:43:10.696Z,8.31
2023-10-20T20:45:39.030Z,8.35
2023-10-20T20:48:08.916Z,8.31
2023-10-20T20:50:41.804Z,8.37
2023-10-20T20:53:10.238Z,8.35
2023-10-20T20:55:38.777Z,8.37
2023-10-20T20:58:08.666Z,8.26
2023-10-20T21:00:37.454Z,8.33
2023-10-20T21:03:06.691Z,8.32
2023-10-20T21:05:35.705Z,8.39
2023-10-20T21:08:04.837Z,8.43
2023-10-20T21:10:33.907Z,8.40
2023-10-20T21:13:02.570Z,8.40
2023-10-20T21:15:32.488Z,8.45
2023-10-20T21:18:00.837Z,8.43
2023-10-20T21:20:29.272Z,8.42
2023-10-20T21:22:57.569Z,8.44
2023-10-20T21:25:26.636Z,8.50
2023-10-20T21:27:55.137Z,8.49
2023-10-20T21:30:23.449Z,8.45
2023-10-20T21:32:53.318Z,8.46
2023-10-20T21:35:23.836Z,8.47
2023-10-20T21:37:52.206Z,8.51
2023-10-20T21:40:21.738Z,8.56
2023-10-20T21:42:50.160Z,8.62
2023-10-20T21:45:19.334Z,8.47
2023-10-20T21:47:47.987Z,8.69
2023-10-20T21:50:18.118Z,8.64
2023-10-20T21:52:46.491Z,8.76
2023-10-20T21:55:14.800Z,8.74
2023-10-20T21:57:43.256Z,8.73
2023-10-20T22:00:17.293Z,8.79
2023-10-20T22:02:46.199Z,8.67
2023-10-20T22:05:14.539Z,8.74
2023-10-20T22:07:44.614Z,8.83
2023-10-20T22:10:13.007Z,8.82
2023-10-20T22:12:41.414Z,8.86
2023-10-20T22:15:10.879Z,8.85
2023-10-20T22:17:40.053Z,8.84
2023-10-20T22:20:10.035Z,8.67
2023-10-20T22:22:38.433Z,8.73
2023-10-20T22:25:10.087Z,8.68
2023-10-20T22:27:38.474Z,8.70
2023-10-20T22:30:09.087Z,8.66
2023-10-20T22:32:38.463Z,8.71
2023-10-20T22:35:07.634Z,8.73
2023-10-20T22:37:36.481Z,8.68
2023-10-20T22:40:05.239Z,8.64
2023-10-20T22:42:35.021Z,8.65
2023-10-20T22:45:03.655Z,8.59
2023-10-20T22:47:33.436Z,8.58
2023-10-20T22:50:01.893Z,8.36
2023-10-20T22:52:30.301Z,8.48
2023-10-20T22:54:58.792Z,8.45
2023-10-20T22:57:27.145Z,8.47
2023-10-20T22:59:57.078Z,8.39
2023-10-20T23:02:25.530Z,8.35
2023-10-20T23:04:53.793Z,8.33
2023-10-20T23:07:22.071Z,8.37
2023-10-20T23:09:50.650Z,8.40
2023-10-20T23:12:18.985Z,8.42
2023-10-20T23:14:47.428Z,8.35
2023-10-20T23:17:17.611Z,8.55
2023-10-20T23:19:46.018Z,8.58
2023-10-20T23:22:14.422Z,8.58
2023-10-20T23:24:42.935Z,8.68
2023-10-20T23:27:11.257Z,8.73
2023-10-20T23:29:39.704Z,8.77
2023-10-20T23:32:09.997Z,8.77
2023-10-20T23:34:39.878Z,8.82
2023-10-20T23:37:09.098Z,8.88
2023-10-20T23:39:37.942Z,8.88
2023-10-20T23:42:06.832Z,8.96
2023-10-20T23:44:35.411Z,9.01
2023-10-20T23:47:03.877Z,8.97
2023-10-20T23:49:34.326Z,9.03
2023-10-20T23:52:04.141Z,9.00
2023-10-20T23:54:32.598Z,8.96
2023-10-20T23:57:01.025Z,8.99
2023-10-20T23:59:29.748Z,9.00
